Grady, Oklahoma
Current Conditions -  °F | °C
As of 5:15 PM on Thursday 27 Nov 2014 (Local Time) from K0F2 Reporting Station
Clear Clear  
Wind Chill: 51°   Ceiling: Unl
Heat Index: 51°   Visibility: 10mi
Dew Point: 25°   Wind: 0mph
Humidity: 36%   Direction: NA
Pressure: 30.39"   Gusts: NA
Location:  33.908°N, 97.9293°W
Report Text: K0F2 272315Z AUTO 00000KT 10SM CLR 11/M04 A3039 RMK AO2 T01081037
Loading
Personal Weather Stations






























Interactive Weather Map New forecast layout! Learn more

10-Day Weather Forecast

Advertisements
Track Severe Weather on mobile